sensor_id;sensor_type;location;lat;lon;timestamp;P1;durP1;ratioP1;P2;durP2;ratioP2
75358;SDS011;64046;51.978;5.934;2023-04-30T00:02:22;6.03;;;3.60;;
75358;SDS011;64046;51.978;5.934;2023-04-30T00:04:56;5.90;;;4.10;;
75358;SDS011;64046;51.978;5.934;2023-04-30T00:07:34;4.75;;;3.20;;
75358;SDS011;64046;51.978;5.934;2023-04-30T00:10:10;5.25;;;3.70;;
75358;SDS011;64046;51.978;5.934;2023-04-30T00:12:46;6.68;;;4.68;;
75358;SDS011;64046;51.978;5.934;2023-04-30T00:15:27;5.75;;;3.58;;
75358;SDS011;64046;51.978;5.934;2023-04-30T00:18:00;7.78;;;3.78;;
75358;SDS011;64046;51.978;5.934;2023-04-30T00:20:40;9.38;;;4.30;;
75358;SDS011;64046;51.978;5.934;2023-04-30T00:23:13;7.63;;;3.78;;
75358;SDS011;64046;51.978;5.934;2023-04-30T00:25:47;5.75;;;3.75;;
75358;SDS011;64046;51.978;5.934;2023-04-30T00:28:19;5.78;;;4.25;;
75358;SDS011;64046;51.978;5.934;2023-04-30T00:30:49;6.70;;;4.28;;
75358;SDS011;64046;51.978;5.934;2023-04-30T00:33:25;6.13;;;4.32;;
75358;SDS011;64046;51.978;5.934;2023-04-30T00:36:02;8.48;;;4.45;;
75358;SDS011;64046;51.978;5.934;2023-04-30T00:38:32;7.82;;;4.30;;
75358;SDS011;64046;51.978;5.934;2023-04-30T00:41:06;5.38;;;3.72;;
75358;SDS011;64046;51.978;5.934;2023-04-30T00:43:44;4.95;;;3.50;;
75358;SDS011;64046;51.978;5.934;2023-04-30T00:46:17;5.93;;;4.22;;
75358;SDS011;64046;51.978;5.934;2023-04-30T00:48:51;6.40;;;4.07;;
75358;SDS011;64046;51.978;5.934;2023-04-30T00:51:21;7.32;;;3.83;;
75358;SDS011;64046;51.978;5.934;2023-04-30T00:54:00;6.30;;;4.28;;
75358;SDS011;64046;51.978;5.934;2023-04-30T00:56:40;5.07;;;3.70;;
75358;SDS011;64046;51.978;5.934;2023-04-30T00:59:14;5.43;;;3.60;;
75358;SDS011;64046;51.978;5.934;2023-04-30T01:01:54;8.52;;;4.35;;
75358;SDS011;64046;51.978;5.934;2023-04-30T01:04:25;9.50;;;7.00;;
75358;SDS011;64046;51.978;5.934;2023-04-30T01:06:54;16.48;;;9.73;;
75358;SDS011;64046;51.978;5.934;2023-04-30T01:09:28;8.93;;;4.78;;
75358;SDS011;64046;51.978;5.934;2023-04-30T01:12:03;7.50;;;3.55;;
75358;SDS011;64046;51.978;5.934;2023-04-30T01:14:43;5.97;;;3.75;;
75358;SDS011;64046;51.978;5.934;2023-04-30T01:17:36;6.07;;;3.65;;
75358;SDS011;64046;51.978;5.934;2023-04-30T01:23:10;8.20;;;3.60;;
75358;SDS011;64046;51.978;5.934;2023-04-30T01:26:06;7.32;;;3.90;;
75358;SDS011;64046;51.978;5.934;2023-04-30T01:28:45;9.25;;;4.07;;
75358;SDS011;64046;51.978;5.934;2023-04-30T01:31:29;7.13;;;4.35;;
75358;SDS011;64046;51.978;5.934;2023-04-30T01:34:09;7.40;;;3.95;;
75358;SDS011;64046;51.978;5.934;2023-04-30T01:36:53;7.95;;;4.13;;
75358;SDS011;64046;51.978;5.934;2023-04-30T01:40:01;6.00;;;3.35;;
75358;SDS011;64046;51.978;5.934;2023-04-30T01:43:07;5.45;;;3.78;;
75358;SDS011;64046;51.978;5.934;2023-04-30T01:45:56;6.32;;;3.75;;
75358;SDS011;64046;51.978;5.934;2023-04-30T01:48:45;9.00;;;3.83;;
75358;SDS011;64046;51.978;5.934;2023-04-30T01:51:27;3.90;;;3.20;;
75358;SDS011;64046;51.978;5.934;2023-04-30T01:54:14;7.60;;;4.40;;
75358;SDS011;64046;51.978;5.934;2023-04-30T01:56:52;6.70;;;3.63;;
75358;SDS011;64046;51.978;5.934;2023-04-30T01:59:32;4.80;;;3.78;;
75358;SDS011;64046;51.978;5.934;2023-04-30T02:02:14;6.85;;;3.90;;
75358;SDS011;64046;51.978;5.934;2023-04-30T02:04:46;5.57;;;4.20;;
75358;SDS011;64046;51.978;5.934;2023-04-30T02:07:23;7.30;;;4.00;;
75358;SDS011;64046;51.978;5.934;2023-04-30T02:10:07;5.78;;;3.80;;
75358;SDS011;64046;51.978;5.934;2023-04-30T02:12:46;10.45;;;3.83;;
75358;SDS011;64046;51.978;5.934;2023-04-30T02:15:20;8.85;;;4.50;;
75358;SDS011;64046;51.978;5.934;2023-04-30T02:17:56;6.43;;;3.97;;
75358;SDS011;64046;51.978;5.934;2023-04-30T02:20:30;6.35;;;4.28;;
75358;SDS011;64046;51.978;5.934;2023-04-30T02:23:02;6.05;;;3.95;;
75358;SDS011;64046;51.978;5.934;2023-04-30T02:25:38;7.72;;;4.05;;
75358;SDS011;64046;51.978;5.934;2023-04-30T02:28:08;7.20;;;3.80;;
75358;SDS011;64046;51.978;5.934;2023-04-30T02:30:38;6.70;;;4.35;;
75358;SDS011;64046;51.978;5.934;2023-04-30T02:33:19;8.98;;;3.97;;
75358;SDS011;64046;51.978;5.934;2023-04-30T02:35:54;5.72;;;4.00;;
75358;SDS011;64046;51.978;5.934;2023-04-30T02:38:30;5.80;;;3.85;;
75358;SDS011;64046;51.978;5.934;2023-04-30T02:41:03;5.70;;;3.42;;
75358;SDS011;64046;51.978;5.934;2023-04-30T02:43:41;4.50;;;3.05;;
75358;SDS011;64046;51.978;5.934;2023-04-30T02:46:15;9.43;;;4.88;;
75358;SDS011;64046;51.978;5.934;2023-04-30T02:48:53;7.43;;;3.70;;
75358;SDS011;64046;51.978;5.934;2023-04-30T02:51:44;6.63;;;4.22;;
75358;SDS011;64046;51.978;5.934;2023-04-30T02:54:15;5.82;;;3.90;;
75358;SDS011;64046;51.978;5.934;2023-04-30T02:56:53;6.43;;;3.63;;
75358;SDS011;64046;51.978;5.934;2023-04-30T02:59:26;6.75;;;3.63;;
75358;SDS011;64046;51.978;5.934;2023-04-30T03:02:02;7.18;;;3.92;;
75358;SDS011;64046;51.978;5.934;2023-04-30T03:04:37;9.65;;;3.88;;
75358;SDS011;64046;51.978;5.934;2023-04-30T03:07:09;7.00;;;4.00;;
75358;SDS011;64046;51.978;5.934;2023-04-30T03:09:40;8.38;;;4.30;;
75358;SDS011;64046;51.978;5.934;2023-04-30T03:12:15;8.75;;;3.83;;
75358;SDS011;64046;51.978;5.934;2023-04-30T03:14:47;5.57;;;3.70;;
75358;SDS011;64046;51.978;5.934;2023-04-30T03:17:38;8.82;;;4.43;;
75358;SDS011;64046;51.978;5.934;2023-04-30T03:20:11;16.02;;;5.85;;
75358;SDS011;64046;51.978;5.934;2023-04-30T03:22:44;7.93;;;4.35;;
75358;SDS011;64046;51.978;5.934;2023-04-30T03:25:21;8.05;;;4.18;;
75358;SDS011;64046;51.978;5.934;2023-04-30T03:27:57;8.50;;;4.47;;
75358;SDS011;64046;51.978;5.934;2023-04-30T03:30:37;6.40;;;4.35;;
75358;SDS011;64046;51.978;5.934;2023-04-30T03:33:11;7.32;;;4.45;;
75358;SDS011;64046;51.978;5.934;2023-04-30T03:35:44;7.68;;;4.47;;
75358;SDS011;64046;51.978;5.934;2023-04-30T03:38:18;7.13;;;4.18;;
75358;SDS011;64046;51.978;5.934;2023-04-30T03:40:50;6.57;;;4.97;;
75358;SDS011;64046;51.978;5.934;2023-04-30T03:43:22;6.88;;;4.30;;
75358;SDS011;64046;51.978;5.934;2023-04-30T03:45:52;6.97;;;4.53;;
75358;SDS011;64046;51.978;5.934;2023-04-30T03:48:35;7.03;;;4.28;;
75358;SDS011;64046;51.978;5.934;2023-04-30T03:51:20;10.07;;;4.30;;
75358;SDS011;64046;51.978;5.934;2023-04-30T03:53:52;11.85;;;5.10;;
75358;SDS011;64046;51.978;5.934;2023-04-30T03:56:32;7.93;;;4.13;;
75358;SDS011;64046;51.978;5.934;2023-04-30T03:59:07;6.38;;;4.03;;
75358;SDS011;64046;51.978;5.934;2023-04-30T04:01:40;8.23;;;3.97;;
75358;SDS011;64046;51.978;5.934;2023-04-30T04:04:14;8.68;;;4.70;;
75358;SDS011;64046;51.978;5.934;2023-04-30T04:06:52;7.65;;;4.53;;
75358;SDS011;64046;51.978;5.934;2023-04-30T04:09:43;7.78;;;4.38;;
75358;SDS011;64046;51.978;5.934;2023-04-30T04:12:19;7.57;;;5.38;;
75358;SDS011;64046;51.978;5.934;2023-04-30T04:14:50;8.75;;;4.38;;
75358;SDS011;64046;51.978;5.934;2023-04-30T04:17:25;7.00;;;4.07;;
75358;SDS011;64046;51.978;5.934;2023-04-30T04:20:07;6.40;;;4.82;;
75358;SDS011;64046;51.978;5.934;2023-04-30T04:22:54;10.55;;;4.82;;
75358;SDS011;64046;51.978;5.934;2023-04-30T04:25:29;8.15;;;4.60;;
75358;SDS011;64046;51.978;5.934;2023-04-30T04:28:07;13.55;;;5.53;;
75358;SDS011;64046;51.978;5.934;2023-04-30T04:30:43;10.57;;;5.90;;
75358;SDS011;64046;51.978;5.934;2023-04-30T04:33:29;10.90;;;6.30;;
75358;SDS011;64046;51.978;5.934;2023-04-30T04:36:05;9.50;;;5.13;;
75358;SDS011;64046;51.978;5.934;2023-04-30T04:38:40;8.30;;;5.07;;
75358;SDS011;64046;51.978;5.934;2023-04-30T04:41:13;8.68;;;5.55;;
75358;SDS011;64046;51.978;5.934;2023-04-30T04:43:52;9.20;;;4.90;;
75358;SDS011;64046;51.978;5.934;2023-04-30T04:46:28;9.85;;;4.93;;
75358;SDS011;64046;51.978;5.934;2023-04-30T04:49:03;8.88;;;5.38;;
75358;SDS011;64046;51.978;5.934;2023-04-30T04:51:53;11.50;;;6.70;;
75358;SDS011;64046;51.978;5.934;2023-04-30T04:54:29;9.45;;;5.43;;
75358;SDS011;64046;51.978;5.934;2023-04-30T04:57:03;8.82;;;4.97;;
75358;SDS011;64046;51.978;5.934;2023-04-30T04:59:36;9.43;;;6.10;;
75358;SDS011;64046;51.978;5.934;2023-04-30T05:02:07;11.25;;;6.40;;
75358;SDS011;64046;51.978;5.934;2023-04-30T05:04:38;8.75;;;6.10;;
75358;SDS011;64046;51.978;5.934;2023-04-30T05:07:20;13.80;;;7.10;;
75358;SDS011;64046;51.978;5.934;2023-04-30T05:09:53;10.75;;;5.93;;
75358;SDS011;64046;51.978;5.934;2023-04-30T05:12:23;9.27;;;5.82;;
75358;SDS011;64046;51.978;5.934;2023-04-30T05:14:54;9.88;;;6.15;;
75358;SDS011;64046;51.978;5.934;2023-04-30T05:17:27;9.88;;;5.63;;
75358;SDS011;64046;51.978;5.934;2023-04-30T05:19:59;8.80;;;5.68;;
75358;SDS011;64046;51.978;5.934;2023-04-30T05:22:32;10.65;;;6.20;;
75358;SDS011;64046;51.978;5.934;2023-04-30T05:25:06;6.75;;;4.93;;
75358;SDS011;64046;51.978;5.934;2023-04-30T05:27:40;9.30;;;5.50;;
75358;SDS011;64046;51.978;5.934;2023-04-30T05:30:16;7.68;;;5.03;;
75358;SDS011;64046;51.978;5.934;2023-04-30T05:32:49;10.27;;;5.30;;
75358;SDS011;64046;51.978;5.934;2023-04-30T05:35:24;8.55;;;5.32;;
75358;SDS011;64046;51.978;5.934;2023-04-30T05:38:01;10.13;;;5.72;;
75358;SDS011;64046;51.978;5.934;2023-04-30T05:40:37;9.80;;;5.65;;
75358;SDS011;64046;51.978;5.934;2023-04-30T05:43:09;9.73;;;5.82;;
75358;SDS011;64046;51.978;5.934;2023-04-30T05:45:43;8.95;;;5.57;;
75358;SDS011;64046;51.978;5.934;2023-04-30T05:48:14;8.70;;;5.00;;
75358;SDS011;64046;51.978;5.934;2023-04-30T05:50:47;7.10;;;4.57;;
75358;SDS011;64046;51.978;5.934;2023-04-30T05:53:18;8.70;;;5.07;;
75358;SDS011;64046;51.978;5.934;2023-04-30T05:58:52;9.98;;;6.03;;
75358;SDS011;64046;51.978;5.934;2023-04-30T06:01:27;8.93;;;5.55;;
75358;SDS011;64046;51.978;5.934;2023-04-30T06:04:06;10.55;;;5.13;;
75358;SDS011;64046;51.978;5.934;2023-04-30T06:06:37;9.07;;;5.60;;
75358;SDS011;64046;51.978;5.934;2023-04-30T06:09:09;14.60;;;6.70;;
75358;SDS011;64046;51.978;5.934;2023-04-30T06:11:41;11.48;;;5.88;;
75358;SDS011;64046;51.978;5.934;2023-04-30T06:14:25;7.90;;;5.70;;
75358;SDS011;64046;51.978;5.934;2023-04-30T06:17:09;15.35;;;5.50;;
75358;SDS011;64046;51.978;5.934;2023-04-30T06:19:44;9.68;;;4.95;;
75358;SDS011;64046;51.978;5.934;2023-04-30T06:22:16;7.75;;;5.68;;
75358;SDS011;64046;51.978;5.934;2023-04-30T06:24:55;11.13;;;6.25;;
75358;SDS011;64046;51.978;5.934;2023-04-30T06:27:28;15.20;;;7.22;;
75358;SDS011;64046;51.978;5.934;2023-04-30T06:30:25;8.98;;;6.20;;
75358;SDS011;64046;51.978;5.934;2023-04-30T06:33:00;12.75;;;6.05;;
75358;SDS011;64046;51.978;5.934;2023-04-30T06:35:42;11.45;;;6.38;;
75358;SDS011;64046;51.978;5.934;2023-04-30T06:38:15;15.32;;;7.30;;
75358;SDS011;64046;51.978;5.934;2023-04-30T06:40:47;10.63;;;6.13;;
75358;SDS011;64046;51.978;5.934;2023-04-30T06:43:17;10.73;;;5.57;;
75358;SDS011;64046;51.978;5.934;2023-04-30T06:45:50;11.98;;;5.97;;
75358;SDS011;64046;51.978;5.934;2023-04-30T06:48:21;9.02;;;6.38;;
75358;SDS011;64046;51.978;5.934;2023-04-30T06:51:00;12.63;;;6.13;;
75358;SDS011;64046;51.978;5.934;2023-04-30T06:53:43;10.98;;;6.65;;
75358;SDS011;64046;51.978;5.934;2023-04-30T06:56:31;12.60;;;7.10;;
75358;SDS011;64046;51.978;5.934;2023-04-30T06:59:00;12.18;;;5.90;;
75358;SDS011;64046;51.978;5.934;2023-04-30T07:01:45;12.30;;;6.53;;
75358;SDS011;64046;51.978;5.934;2023-04-30T07:04:20;8.40;;;5.50;;
75358;SDS011;64046;51.978;5.934;2023-04-30T07:06:59;7.45;;;4.63;;
75358;SDS011;64046;51.978;5.934;2023-04-30T07:09:31;11.48;;;5.72;;
75358;SDS011;64046;51.978;5.934;2023-04-30T07:12:05;9.13;;;5.25;;
75358;SDS011;64046;51.978;5.934;2023-04-30T07:14:39;15.65;;;6.20;;
75358;SDS011;64046;51.978;5.934;2023-04-30T07:17:14;7.90;;;4.50;;
75358;SDS011;64046;51.978;5.934;2023-04-30T07:19:50;8.13;;;4.63;;
75358;SDS011;64046;51.978;5.934;2023-04-30T07:22:20;12.05;;;5.80;;
75358;SDS011;64046;51.978;5.934;2023-04-30T07:24:55;11.35;;;5.57;;
75358;SDS011;64046;51.978;5.934;2023-04-30T07:27:26;9.63;;;4.88;;
75358;SDS011;64046;51.978;5.934;2023-04-30T07:30:00;9.63;;;4.65;;
75358;SDS011;64046;51.978;5.934;2023-04-30T07:32:38;7.30;;;4.57;;
75358;SDS011;64046;51.978;5.934;2023-04-30T07:35:16;7.13;;;4.40;;
75358;SDS011;64046;51.978;5.934;2023-04-30T07:37:51;9.10;;;5.35;;
75358;SDS011;64046;51.978;5.934;2023-04-30T07:40:30;7.22;;;4.57;;
75358;SDS011;64046;51.978;5.934;2023-04-30T07:43:00;8.48;;;4.35;;
75358;SDS011;64046;51.978;5.934;2023-04-30T07:45:34;4.75;;;3.65;;
75358;SDS011;64046;51.978;5.934;2023-04-30T07:48:07;6.47;;;4.25;;
75358;SDS011;64046;51.978;5.934;2023-04-30T07:50:44;7.82;;;4.68;;
75358;SDS011;64046;51.978;5.934;2023-04-30T07:53:19;6.95;;;4.45;;
75358;SDS011;64046;51.978;5.934;2023-04-30T07:55:55;6.97;;;4.20;;
75358;SDS011;64046;51.978;5.934;2023-04-30T07:58:26;7.43;;;4.82;;
75358;SDS011;64046;51.978;5.934;2023-04-30T08:00:57;9.45;;;6.22;;
75358;SDS011;64046;51.978;5.934;2023-04-30T08:03:35;9.75;;;4.97;;
75358;SDS011;64046;51.978;5.934;2023-04-30T08:06:32;8.20;;;4.38;;
75358;SDS011;64046;51.978;5.934;2023-04-30T08:09:01;7.85;;;4.85;;
75358;SDS011;64046;51.978;5.934;2023-04-30T08:11:35;9.60;;;5.10;;
75358;SDS011;64046;51.978;5.934;2023-04-30T08:14:11;7.57;;;4.47;;
75358;SDS011;64046;51.978;5.934;2023-04-30T08:16:52;6.55;;;4.57;;
75358;SDS011;64046;51.978;5.934;2023-04-30T08:19:27;9.55;;;5.40;;
75358;SDS011;64046;51.978;5.934;2023-04-30T08:21:59;8.10;;;4.35;;
75358;SDS011;64046;51.978;5.934;2023-04-30T08:24:46;8.23;;;4.85;;
75358;SDS011;64046;51.978;5.934;2023-04-30T08:27:23;9.00;;;5.05;;
75358;SDS011;64046;51.978;5.934;2023-04-30T08:29:59;9.73;;;5.53;;
75358;SDS011;64046;51.978;5.934;2023-04-30T08:32:28;8.13;;;5.45;;
75358;SDS011;64046;51.978;5.934;2023-04-30T08:35:09;5.88;;;4.40;;
75358;SDS011;64046;51.978;5.934;2023-04-30T08:37:41;11.55;;;6.05;;
75358;SDS011;64046;51.978;5.934;2023-04-30T08:40:17;12.05;;;4.43;;
75358;SDS011;64046;51.978;5.934;2023-04-30T08:42:56;7.43;;;4.45;;
75358;SDS011;64046;51.978;5.934;2023-04-30T08:45:42;4.65;;;4.15;;
75358;SDS011;64046;51.978;5.934;2023-04-30T08:48:20;7.13;;;4.57;;
75358;SDS011;64046;51.978;5.934;2023-04-30T08:50:55;8.80;;;4.45;;
75358;SDS011;64046;51.978;5.934;2023-04-30T08:53:29;9.65;;;5.20;;
75358;SDS011;64046;51.978;5.934;2023-04-30T08:56:10;9.48;;;4.97;;
75358;SDS011;64046;51.978;5.934;2023-04-30T08:58:47;8.20;;;4.35;;
75358;SDS011;64046;51.978;5.934;2023-04-30T09:01:27;6.82;;;4.15;;
75358;SDS011;64046;51.978;5.934;2023-04-30T09:04:03;6.95;;;4.65;;
75358;SDS011;64046;51.978;5.934;2023-04-30T09:06:42;8.85;;;4.15;;
75358;SDS011;64046;51.978;5.934;2023-04-30T09:09:19;9.60;;;4.90;;
75358;SDS011;64046;51.978;5.934;2023-04-30T09:11:52;7.00;;;4.35;;
75358;SDS011;64046;51.978;5.934;2023-04-30T09:14:22;12.02;;;4.75;;
75358;SDS011;64046;51.978;5.934;2023-04-30T09:16:54;9.32;;;4.78;;
75358;SDS011;64046;51.978;5.934;2023-04-30T09:19:25;7.95;;;5.10;;
75358;SDS011;64046;51.978;5.934;2023-04-30T09:24:53;8.55;;;4.85;;
75358;SDS011;64046;51.978;5.934;2023-04-30T09:27:23;7.32;;;4.38;;
75358;SDS011;64046;51.978;5.934;2023-04-30T09:30:14;7.72;;;4.40;;
75358;SDS011;64046;51.978;5.934;2023-04-30T09:33:02;8.48;;;4.50;;
75358;SDS011;64046;51.978;5.934;2023-04-30T09:35:45;6.88;;;4.50;;
75358;SDS011;64046;51.978;5.934;2023-04-30T09:38:35;6.38;;;4.30;;
75358;SDS011;64046;51.978;5.934;2023-04-30T09:41:19;6.72;;;4.28;;
75358;SDS011;64046;51.978;5.934;2023-04-30T09:43:52;4.88;;;4.30;;
75358;SDS011;64046;51.978;5.934;2023-04-30T09:46:48;5.72;;;4.13;;
75358;SDS011;64046;51.978;5.934;2023-04-30T09:49:40;9.40;;;4.68;;
75358;SDS011;64046;51.978;5.934;2023-04-30T09:52:19;7.10;;;4.55;;
75358;SDS011;64046;51.978;5.934;2023-04-30T09:54:54;5.10;;;3.58;;
75358;SDS011;64046;51.978;5.934;2023-04-30T09:57:26;7.55;;;4.38;;
75358;SDS011;64046;51.978;5.934;2023-04-30T10:00:06;8.85;;;4.30;;
75358;SDS011;64046;51.978;5.934;2023-04-30T10:02:37;6.13;;;4.35;;
75358;SDS011;64046;51.978;5.934;2023-04-30T10:05:09;6.22;;;4.38;;
75358;SDS011;64046;51.978;5.934;2023-04-30T10:07:45;5.15;;;3.88;;
75358;SDS011;64046;51.978;5.934;2023-04-30T10:10:21;6.55;;;4.63;;
75358;SDS011;64046;51.978;5.934;2023-04-30T10:15:31;7.43;;;3.83;;
75358;SDS011;64046;51.978;5.934;2023-04-30T10:18:22;5.18;;;3.40;;
75358;SDS011;64046;51.978;5.934;2023-04-30T10:21:00;5.63;;;3.50;;
75358;SDS011;64046;51.978;5.934;2023-04-30T10:23:47;8.50;;;3.42;;
75358;SDS011;64046;51.978;5.934;2023-04-30T10:26:20;6.30;;;4.00;;
75358;SDS011;64046;51.978;5.934;2023-04-30T10:28:52;6.32;;;3.60;;
75358;SDS011;64046;51.978;5.934;2023-04-30T10:31:25;4.55;;;3.40;;
75358;SDS011;64046;51.978;5.934;2023-04-30T10:34:02;5.63;;;3.17;;
75358;SDS011;64046;51.978;5.934;2023-04-30T10:36:41;5.47;;;3.05;;
75358;SDS011;64046;51.978;5.934;2023-04-30T10:39:16;5.43;;;3.50;;
75358;SDS011;64046;51.978;5.934;2023-04-30T10:42:05;6.28;;;3.53;;
75358;SDS011;64046;51.978;5.934;2023-04-30T10:44:38;5.15;;;3.28;;
75358;SDS011;64046;51.978;5.934;2023-04-30T10:47:08;4.43;;;3.28;;
75358;SDS011;64046;51.978;5.934;2023-04-30T10:49:38;6.45;;;4.10;;
75358;SDS011;64046;51.978;5.934;2023-04-30T10:52:24;7.03;;;3.25;;
75358;SDS011;64046;51.978;5.934;2023-04-30T10:55:04;5.35;;;3.15;;
75358;SDS011;64046;51.978;5.934;2023-04-30T10:57:47;6.00;;;3.95;;
75358;SDS011;64046;51.978;5.934;2023-04-30T11:03:22;5.60;;;3.35;;
75358;SDS011;64046;51.978;5.934;2023-04-30T11:05:56;6.20;;;3.00;;
75358;SDS011;64046;51.978;5.934;2023-04-30T11:08:32;7.18;;;3.60;;
75358;SDS011;64046;51.978;5.934;2023-04-30T11:11:02;5.28;;;3.33;;
75358;SDS011;64046;51.978;5.934;2023-04-30T11:13:43;5.47;;;3.40;;
75358;SDS011;64046;51.978;5.934;2023-04-30T11:16:20;8.57;;;5.00;;
75358;SDS011;64046;51.978;5.934;2023-04-30T11:19:04;6.38;;;3.75;;
75358;SDS011;64046;51.978;5.934;2023-04-30T11:21:43;6.90;;;3.47;;
75358;SDS011;64046;51.978;5.934;2023-04-30T11:24:51;4.72;;;3.22;;
75358;SDS011;64046;51.978;5.934;2023-04-30T11:27:34;4.97;;;3.55;;
75358;SDS011;64046;51.978;5.934;2023-04-30T11:30:17;6.88;;;4.00;;
75358;SDS011;64046;51.978;5.934;2023-04-30T11:32:51;6.93;;;3.47;;
75358;SDS011;64046;51.978;5.934;2023-04-30T11:35:30;5.78;;;3.80;;
75358;SDS011;64046;51.978;5.934;2023-04-30T11:38:08;8.88;;;3.08;;
75358;SDS011;64046;51.978;5.934;2023-04-30T11:40:41;5.30;;;3.50;;
75358;SDS011;64046;51.978;5.934;2023-04-30T11:43:20;4.80;;;2.83;;
75358;SDS011;64046;51.978;5.934;2023-04-30T11:46:08;6.13;;;3.00;;
75358;SDS011;64046;51.978;5.934;2023-04-30T11:48:40;3.92;;;3.20;;
75358;SDS011;64046;51.978;5.934;2023-04-30T11:51:16;4.82;;;2.70;;
75358;SDS011;64046;51.978;5.934;2023-04-30T11:53:47;4.43;;;3.17;;
75358;SDS011;64046;51.978;5.934;2023-04-30T11:56:27;4.35;;;2.67;;
75358;SDS011;64046;51.978;5.934;2023-04-30T11:58:57;3.88;;;2.78;;
75358;SDS011;64046;51.978;5.934;2023-04-30T12:01:32;6.45;;;3.00;;
75358;SDS011;64046;51.978;5.934;2023-04-30T12:04:06;4.13;;;2.42;;
75358;SDS011;64046;51.978;5.934;2023-04-30T12:06:39;3.15;;;2.63;;
75358;SDS011;64046;51.978;5.934;2023-04-30T12:09:10;5.18;;;3.03;;
75358;SDS011;64046;51.978;5.934;2023-04-30T12:11:45;5.55;;;3.70;;
75358;SDS011;64046;51.978;5.934;2023-04-30T12:14:25;6.20;;;3.25;;
75358;SDS011;64046;51.978;5.934;2023-04-30T12:17:02;5.57;;;2.90;;
75358;SDS011;64046;51.978;5.934;2023-04-30T12:19:37;5.45;;;3.40;;
75358;SDS011;64046;51.978;5.934;2023-04-30T12:22:09;5.45;;;3.28;;
75358;SDS011;64046;51.978;5.934;2023-04-30T12:24:40;5.47;;;3.05;;
75358;SDS011;64046;51.978;5.934;2023-04-30T12:27:13;3.00;;;2.28;;
75358;SDS011;64046;51.978;5.934;2023-04-30T12:29:46;5.38;;;2.55;;
75358;SDS011;64046;51.978;5.934;2023-04-30T12:35:12;3.63;;;2.72;;
75358;SDS011;64046;51.978;5.934;2023-04-30T12:37:47;3.53;;;2.00;;
75358;SDS011;64046;51.978;5.934;2023-04-30T12:40:19;4.35;;;2.08;;
75358;SDS011;64046;51.978;5.934;2023-04-30T12:42:55;5.22;;;2.03;;
75358;SDS011;64046;51.978;5.934;2023-04-30T12:48:42;2.75;;;1.95;;
75358;SDS011;64046;51.978;5.934;2023-04-30T12:54:01;4.90;;;1.65;;
75358;SDS011;64046;51.978;5.934;2023-04-30T12:56:31;2.35;;;1.88;;
75358;SDS011;64046;51.978;5.934;2023-04-30T12:59:13;4.78;;;2.28;;
75358;SDS011;64046;51.978;5.934;2023-04-30T13:01:49;2.95;;;1.95;;
75358;SDS011;64046;51.978;5.934;2023-04-30T13:04:25;3.45;;;2.30;;
75358;SDS011;64046;51.978;5.934;2023-04-30T13:07:01;6.47;;;2.90;;
75358;SDS011;64046;51.978;5.934;2023-04-30T13:09:37;4.15;;;2.10;;
75358;SDS011;64046;51.978;5.934;2023-04-30T13:12:08;4.18;;;2.10;;
75358;SDS011;64046;51.978;5.934;2023-04-30T13:14:41;3.47;;;2.03;;
75358;SDS011;64046;51.978;5.934;2023-04-30T13:17:12;2.15;;;1.60;;
75358;SDS011;64046;51.978;5.934;2023-04-30T13:22:50;3.58;;;2.08;;
75358;SDS011;64046;51.978;5.934;2023-04-30T13:25:54;3.15;;;1.92;;
75358;SDS011;64046;51.978;5.934;2023-04-30T13:28:28;2.95;;;2.00;;
75358;SDS011;64046;51.978;5.934;2023-04-30T13:31:02;4.63;;;2.03;;
75358;SDS011;64046;51.978;5.934;2023-04-30T13:33:33;3.95;;;1.90;;
75358;SDS011;64046;51.978;5.934;2023-04-30T13:36:11;3.58;;;1.98;;
75358;SDS011;64046;51.978;5.934;2023-04-30T13:42:06;2.75;;;1.83;;
75358;SDS011;64046;51.978;5.934;2023-04-30T13:44:39;7.22;;;2.00;;
75358;SDS011;64046;51.978;5.934;2023-04-30T13:47:12;5.38;;;2.80;;
75358;SDS011;64046;51.978;5.934;2023-04-30T13:49:49;4.57;;;2.70;;
75358;SDS011;64046;51.978;5.934;2023-04-30T13:52:22;4.95;;;2.63;;
75358;SDS011;64046;51.978;5.934;2023-04-30T13:54:57;4.55;;;2.15;;
75358;SDS011;64046;51.978;5.934;2023-04-30T13:57:48;5.97;;;2.40;;
75358;SDS011;64046;51.978;5.934;2023-04-30T14:00:31;4.22;;;1.80;;
75358;SDS011;64046;51.978;5.934;2023-04-30T14:03:04;5.47;;;1.92;;
75358;SDS011;64046;51.978;5.934;2023-04-30T14:05:37;4.70;;;1.90;;
75358;SDS011;64046;51.978;5.934;2023-04-30T14:08:08;5.07;;;1.98;;
75358;SDS011;64046;51.978;5.934;2023-04-30T14:10:46;2.83;;;1.92;;
75358;SDS011;64046;51.978;5.934;2023-04-30T14:13:21;3.58;;;1.85;;
75358;SDS011;64046;51.978;5.934;2023-04-30T14:15:59;4.90;;;2.08;;
75358;SDS011;64046;51.978;5.934;2023-04-30T14:18:29;4.68;;;1.55;;
75358;SDS011;64046;51.978;5.934;2023-04-30T14:20:59;4.90;;;2.10;;
75358;SDS011;64046;51.978;5.934;2023-04-30T14:23:28;3.22;;;1.55;;
75358;SDS011;64046;51.978;5.934;2023-04-30T14:26:03;2.33;;;1.50;;
75358;SDS011;64046;51.978;5.934;2023-04-30T14:28:38;2.58;;;1.60;;
75358;SDS011;64046;51.978;5.934;2023-04-30T14:31:11;2.28;;;1.20;;
75358;SDS011;64046;51.978;5.934;2023-04-30T14:33:42;5.22;;;2.20;;
75358;SDS011;64046;51.978;5.934;2023-04-30T14:36:12;4.72;;;1.67;;
75358;SDS011;64046;51.978;5.934;2023-04-30T14:38:45;3.20;;;1.52;;
75358;SDS011;64046;51.978;5.934;2023-04-30T14:41:27;2.90;;;1.50;;
75358;SDS011;64046;51.978;5.934;2023-04-30T14:43:59;4.03;;;1.33;;
75358;SDS011;64046;51.978;5.934;2023-04-30T14:46:38;3.33;;;1.50;;
75358;SDS011;64046;51.978;5.934;2023-04-30T14:49:08;2.72;;;1.30;;
75358;SDS011;64046;51.978;5.934;2023-04-30T14:51:44;4.00;;;1.75;;
75358;SDS011;64046;51.978;5.934;2023-04-30T14:54:22;5.68;;;2.25;;
75358;SDS011;64046;51.978;5.934;2023-04-30T14:57:01;2.63;;;1.48;;
75358;SDS011;64046;51.978;5.934;2023-04-30T14:59:35;5.20;;;2.00;;
75358;SDS011;64046;51.978;5.934;2023-04-30T15:02:19;3.88;;;1.60;;
75358;SDS011;64046;51.978;5.934;2023-04-30T15:04:58;4.55;;;1.50;;
75358;SDS011;64046;51.978;5.934;2023-04-30T15:07:32;3.17;;;1.70;;
75358;SDS011;64046;51.978;5.934;2023-04-30T15:10:04;2.53;;;1.30;;
75358;SDS011;64046;51.978;5.934;2023-04-30T15:12:51;1.77;;;1.10;;
75358;SDS011;64046;51.978;5.934;2023-04-30T15:15:38;4.03;;;1.55;;
75358;SDS011;64046;51.978;5.934;2023-04-30T15:21:49;1.60;;;1.10;;
75358;SDS011;64046;51.978;5.934;2023-04-30T15:24:31;7.20;;;2.50;;
75358;SDS011;64046;51.978;5.934;2023-04-30T15:30:30;2.33;;;1.15;;
75358;SDS011;64046;51.978;5.934;2023-04-30T15:33:21;3.60;;;1.30;;
75358;SDS011;64046;51.978;5.934;2023-04-30T15:36:07;5.80;;;2.13;;
75358;SDS011;64046;51.978;5.934;2023-04-30T15:38:41;5.88;;;1.83;;
75358;SDS011;64046;51.978;5.934;2023-04-30T15:41:17;2.70;;;1.30;;
75358;SDS011;64046;51.978;5.934;2023-04-30T15:43:47;4.60;;;1.38;;
75358;SDS011;64046;51.978;5.934;2023-04-30T15:49:01;3.00;;;1.40;;
75358;SDS011;64046;51.978;5.934;2023-04-30T15:51:34;1.63;;;1.05;;
75358;SDS011;64046;51.978;5.934;2023-04-30T15:54:10;4.15;;;1.60;;
75358;SDS011;64046;51.978;5.934;2023-04-30T15:56:41;2.60;;;1.27;;
75358;SDS011;64046;51.978;5.934;2023-04-30T15:59:12;3.30;;;1.30;;
75358;SDS011;64046;51.978;5.934;2023-04-30T16:01:46;2.40;;;1.20;;
75358;SDS011;64046;51.978;5.934;2023-04-30T16:04:23;2.45;;;1.50;;
75358;SDS011;64046;51.978;5.934;2023-04-30T16:06:55;4.43;;;2.08;;
75358;SDS011;64046;51.978;5.934;2023-04-30T16:09:40;4.35;;;1.50;;
75358;SDS011;64046;51.978;5.934;2023-04-30T16:12:13;2.58;;;1.25;;
75358;SDS011;64046;51.978;5.934;2023-04-30T16:14:47;4.28;;;1.67;;
75358;SDS011;64046;51.978;5.934;2023-04-30T16:17:21;3.35;;;1.48;;
75358;SDS011;64046;51.978;5.934;2023-04-30T16:19:57;3.25;;;1.63;;
75358;SDS011;64046;51.978;5.934;2023-04-30T16:22:37;3.53;;;1.30;;